• Join FlightAware (Why Join?)
  • Login
  • US Flag 
08:51PM EDT


 

Airport Tracker/Info


-or-


 

Live Flight TrackerFlight Track Log ✈ UAL4305 ✈ 10-Apr-2013 ✈ KIAH - KTYS

Flight Track Log - Related Links

Times and Time Zones

All times are in EDT time to prevent confusion due to time zone crossing. See the UAL4305 flight status page for this flight to view local times or setup timezone preferences in your user account.

Time Position Orientation Groundspeed Altitude Reporting Facility
EDT Latitude Longitude Course Direction KTS MPH feet Rate Location/Type
02:00PM 29.9614 -95.3411 90° East 159 183 700  Level Houston Center
02:00PM 29.9381 -95.3122 133° Southeast 181 208 1,800 1,620 Climbing Houston Center
02:01PM 29.9139 -95.2794 130° Southeast 229 264 2,900 1,800 Climbing Houston Center
02:01PM 29.9000 -95.2569 125° Southeast 207 238 3,700 1,980 Climbing Houston Center
02:02PM 29.8714 -95.2075 124° Southeast 259 298 5,100 1,920 Climbing Houston Center
02:02PM 29.8700 -95.1831 94° East 255 293 5,700 2,100 Climbing Houston Center
02:03PM 29.9834 -94.7788 90° East  Level FlightAware Approximate
02:03PM 29.8733 -95.1133 87° East 291 335 7,300  Level Houston Center
02:03PM 29.8761 -95.0911 82° East 282 325 7,800 1,860 Climbing Houston Center
02:04PM 29.9833 -94.6401 90° East  Level FlightAware Approximate
02:04PM 29.8856 -95.0203 81° East 303 349 9,200  Level Houston Center
02:04PM 29.8911 -94.9958 75° East 296 341 9,600 1,320 Climbing Houston Center
02:05PM 29.9834 -94.5015 90° East  Level FlightAware Approximate
02:06PM 29.9056 -94.8972 80° East 307 353 11,100  Level Houston Center
02:07PM 29.9247 -94.7714 80° East 328 377 12,400 1,080 Climbing Houston Center
02:08PM 29.9433 -94.6528 80° East 359 413 13,400 900 Climbing Houston Center
02:09PM 29.9611 -94.5344 80° East 370 426 14,300 840 Climbing Houston Center
02:10PM 29.9794 -94.4178 80° East 379 436 15,200 960 Climbing Houston Center
02:11PM 29.9994 -94.2956 79° East 385 443 16,300 960 Climbing Houston Center
02:12PM 30.0136 -94.1722 82° East 387 445 17,300 1,140 Climbing Houston Center
02:13PM 30.0317 -94.0225 82° East 392 451 18,700 1,020 Climbing Houston Center
02:14PM 30.0475 -93.8964 82° East 397 457 19,500 780 Climbing Houston Center
02:15PM 30.0628 -93.7675 82° East 405 466 20,400 780 Climbing Houston Center
02:16PM 30.0775 -93.6378 82° East 409 471 21,200 960 Climbing Houston Center
02:17PM 30.0956 -93.4794 82° East 420 483 22,400 960 Climbing Houston Center
02:18PM 30.1108 -93.3467 82° East 424 488 23,200 780 Climbing Houston Center
02:19PM 30.1281 -93.2122 82° East 428 493 24,100 780 Climbing Houston Center
02:20PM 30.1564 -93.0797 76° East 432 497 24,900 780 Climbing Houston Center
02:21PM 30.2194 -92.9619 58° Northeast 434 499 25,800 1,020 Climbing Houston Center
02:22PM 30.2967 -92.8214 58° Northeast 434 499 27,100 1,020 Climbing Houston Center
02:23PM 30.3606 -92.7053 57° Northeast 432 497 28,000 840 Climbing Houston Center
02:24PM 30.4233 -92.5897 58° Northeast 428 493 28,900 840 Climbing Houston Center
02:25PM 30.4858 -92.4719 58° Northeast 428 493 29,800 900 Climbing Houston Center
02:26PM 30.5483 -92.3564 58° Northeast 426 490 30,800 1,080 Climbing Houston Center
02:27PM 30.6236 -92.2161 58° Northeast 428 493 32,100 1,020 Climbing Houston Center
02:28PM 30.6867 -92.0983 58° Northeast 430 495 33,000 420 Climbing Houston Center
02:29PM 30.7514 -91.9769 58° Northeast 438 504 33,000  Level Houston Center
02:30PM 30.8194 -91.8511 58° Northeast 452 520 33,000  Level Houston Center
02:31PM 30.8881 -91.7206 58° Northeast 467 537 33,000  Level Houston Center
02:32PM 30.9733 -91.5608 58° Northeast 480 552 33,000  Level Houston Center
02:33PM 31.0442 -91.4283 58° Northeast 483 556 33,000  Level Houston Center
02:35PM 31.1169 -91.2889 59° Northeast 484 557 33,000  Level Houston Center
02:36PM 31.1889 -91.1536 58° Northeast 488 562 33,000  Level Houston Center
02:37PM 31.2581 -91.0178 59° Northeast 486 559 33,000  Level Houston Center
02:38PM 31.3278 -90.8822 59° Northeast 485 558 33,000  Level Houston Center
02:39PM 31.4000 -90.7461 58° Northeast 489 563 33,000  Level Houston Center
02:40PM 31.4839 -90.5819 59° Northeast 490 564 33,000  Level Houston Center
02:41PM 31.5547 -90.4464 58° Northeast 488 562 33,000  Level Houston Center
02:42PM 31.6244 -90.3089 59° Northeast 489 563 33,000  Level Houston Center
02:43PM 31.6947 -90.1711 59° Northeast 491 565 33,000  Level Houston Center
02:43PM 31.7342 -90.0936 59° Northeast 489 563 33,000  Level Memphis Center
02:44PM 31.8028 -89.9564 60° Northeast 489 563 33,000  Level Memphis Center
02:45PM 31.8733 -89.8192 59° Northeast 489 563 33,000  Level Memphis Center
02:46PM 31.9500 -89.6914 55° Northeast 489 563 33,000  Level Memphis Center
02:47PM 32.0369 -89.5683 50° Northeast 484 557 33,000  Level Memphis Center
02:48PM 32.1194 -89.4497 51° Northeast 478 550 33,000  Level Memphis Center
02:49PM 32.2042 -89.3311 50° Northeast 473 544 33,000  Level Memphis Center
02:50PM 32.2867 -89.2097 51° Northeast 473 544 33,000  Level Memphis Center
02:51PM 32.3689 -89.0931 50° Northeast 473 544 33,000  Level Memphis Center
02:52PM 32.4431 -88.9861 51° Northeast 473 544 33,000  Level Memphis Center
02:53PM 32.5272 -88.8667 50° Northeast 473 544 33,000  Level Memphis Center
02:54PM 32.6114 -88.7419 51° Northeast 473 544 33,000  Level Memphis Center
02:55PM 32.6953 -88.6219 50° Northeast 473 544 33,000  Level Memphis Center
02:56PM 32.7792 -88.4967 51° Northeast 478 550 33,000  Level Memphis Center
02:57PM 32.8628 -88.3736 51° Northeast 478 550 33,000 -780 Level Memphis Center
02:59PM 32.9986 -88.1675 52° Northeast 475 547 31,000 -780 Descending Atlanta Center
03:00PM 33.0778 -88.0522 51° Northeast 463 533 31,000  Level Atlanta Center
03:01PM 33.1631 -87.9272 51° Northeast 463 533 31,000  Level Atlanta Center
03:02PM 33.2442 -87.8042 52° Northeast 463 533 31,000  Level Atlanta Center
03:03PM 33.3272 -87.6811 51° Northeast 468 539 31,000  Level Atlanta Center
03:04PM 33.4122 -87.5553 51° Northeast 473 544 31,000  Level Atlanta Center
03:05PM 33.4928 -87.4314 52° Northeast 473 544 31,000  Level Atlanta Center
03:06PM 33.5800 -87.3028 51° Northeast 478 550 31,000  Level Atlanta Center
03:07PM 33.6625 -87.1761 52° Northeast 478 550 31,000  Level Atlanta Center
03:08PM 33.7450 -87.0517 51° Northeast 478 550 31,000  Level Atlanta Center
03:09PM 33.8272 -86.9269 52° Northeast 478 550 31,000  Level Atlanta Center
03:10PM 33.9094 -86.7997 52° Northeast 478 550 31,000  Level Atlanta Center
03:11PM 33.9917 -86.6719 52° Northeast 478 550 31,000  Level Atlanta Center
03:12PM 34.0733 -86.5467 52° Northeast 478 550 31,000  Level Atlanta Center
03:13PM 34.1572 -86.4211 51° Northeast 483 556 31,000  Level Atlanta Center
03:14PM 34.2411 -86.2928 52° Northeast 483 556 31,000  Level Atlanta Center
03:15PM 34.3228 -86.1642 52° Northeast 483 556 31,000  Level Atlanta Center
03:16PM 34.4064 -86.0378 51° Northeast 483 556 31,000  Level Atlanta Center
03:17PM 34.4856 -85.9061 54° Northeast 483 556 31,000  Level Atlanta Center
03:18PM 34.5667 -85.7819 52° Northeast 478 550 31,000  Level Atlanta Center
03:19PM 34.6478 -85.6522 53° Northeast 478 550 31,000  Level Atlanta Center
03:20PM 34.7286 -85.5250 52° Northeast 483 556 31,000 -720 Level Atlanta Center
03:21PM 34.8094 -85.3947 53° Northeast 483 556 29,600 -1,440 Descending Atlanta Center
03:22PM 34.8900 -85.2694 52° Northeast 477 549 28,200 -1,500 Descending Atlanta Center
03:23PM 34.9683 -85.1464 52° Northeast 472 543 26,700 -1,500 Descending Atlanta Center
03:24PM 35.0572 -85.0258 48° Northeast 472 543 25,300 -1,260 Descending Atlanta Center
03:25PM 35.1497 -84.9075 46° Northeast 472 543 24,200 -1,140 Descending Atlanta Center
03:26PM 35.2361 -84.7939 47° Northeast 466 536 23,100 -1,260 Descending Atlanta Center
03:27PM 35.3222 -84.6778 48° Northeast 460 529 21,700 -1,680 Descending Atlanta Center
03:28PM 35.4064 -84.5661 47° Northeast 455 524 19,800 -2,220 Descending Atlanta Center
03:29PM 35.4881 -84.4597 47° Northeast 443 510 17,300 -2,760 Descending Atlanta Center
03:30PM 35.5719 -84.3450 48° Northeast 422 486 14,300 -2,040 Descending Atlanta Center
03:31PM 35.6514 -84.2686 38° Northeast 388 447 13,300 -1,380 Descending Atlanta Center
03:32PM 35.7222 -84.2000 38° Northeast 350 403 11,600 -2,220 Descending Atlanta Center
03:33PM 35.7892 -84.1333 39° Northeast 327 376 8,900 -2,280 Descending Atlanta Center
03:34PM 35.8539 -84.0644 41° Northeast 307 353 7,100 -2,040 Descending Atlanta Center
03:35PM 35.9186 -84.0028 38° Northeast 295 339 4,900 -2,100 Descending Atlanta Center
03:36PM 35.9164 -83.9233 92° East 215 247 2,900 -1,140 Descending Atlanta Center
03:37PM 35.8725 -83.9106 167° South 127 146 2,700 -540 Descending Atlanta Center
03:38PM 35.8475 -83.9492 231° Southwest 86 99 1,900 -840 Descending Atlanta Center